X  Chiuso Dati meteorologici dell'aviazione (METAR)     LIPX Verona Villafranca Airport
Temperatura
0°C Temperatura
-1°C Punto di rugiada
93% Umidità



Vento
5 KM/h
3 MPH
1 M/S
3 KTS



350°
Nord
Condizioni attuali

Chiaro Chiaro
Pressione 1012.92 (hPa) - 29.91 (inHg)
Visibilità 6.2 (miglio) - 10 (km)
Aeroporto
Codice-Aeroporto LIPX

Posizione: Verona Villafranca Airport
Distanza: 14 (km)

Metar:
LIPX 071950Z 35003KT CAVOK M00/M01 Q1013

Ore: 07-12-2021 20:50 CET